Time;durP1;ratioP1;P1;durP2;ratioP2;P2;SDS_P1;SDS_P2;PMS_P1;PMS_P2;Temp;Humidity;BMP_temperature;BMP_pressure;BME280_temperature;BME280_humidity;BME280_pressure;Samples;Min_cycle;Max_cycle;Signal;HPM_P1;HPM_P2
2022/08/09 00:01:50;;;;;;;4.78;2.80;;;12.90;99.90;;;;;;4962132;28;20387;-93
2022/08/09 00:04:17;;;;;;;4.40;1.98;;;12.90;99.90;;;;;;4961000;28;20046;-93
2022/08/09 00:06:43;;;;;;;2.75;1.40;;;13.00;99.90;;;;;;4961818;28;20101;-93
2022/08/09 00:09:10;;;;;;;2.47;1.88;;;12.90;99.90;;;;;;4945522;28;20126;-93
2022/08/09 00:11:37;;;;;;;4.30;1.92;;;12.90;99.90;;;;;;4956789;28;20073;-93
2022/08/09 00:14:06;;;;;;;2.63;1.65;;;12.80;99.90;;;;;;4961767;28;20046;-93
2022/08/09 00:16:32;;;;;;;4.63;2.20;;;12.80;99.90;;;;;;4975617;28;20050;-93
2022/08/09 00:18:58;;;;;;;3.90;2.10;;;12.80;99.90;;;;;;4979368;28;20054;-93
2022/08/09 00:21:24;;;;;;;4.30;2.45;;;12.70;99.90;;;;;;4951456;28;20043;-93
2022/08/09 00:23:50;;;;;;;4.00;2.95;;;12.70;99.90;;;;;;4976551;28;20058;-93
2022/08/09 00:26:20;;;;;;;4.85;2.83;;;12.60;99.90;;;;;;4955723;28;20046;-93
2022/08/09 00:28:49;;;;;;;4.85;3.25;;;12.60;99.90;;;;;;4997012;28;20042;-93
2022/08/09 00:31:15;;;;;;;5.82;2.70;;;12.50;99.90;;;;;;4976333;28;20049;-93
2022/08/09 00:33:42;;;;;;;3.08;2.85;;;12.60;99.90;;;;;;4960954;28;20051;-93
2022/08/09 00:36:13;;;;;;;10.20;3.72;;;13.00;99.90;;;;;;4976384;28;20078;-93
2022/08/09 00:38:41;;;;;;;4.47;3.78;;;12.60;99.90;;;;;;4976537;28;20501;-93
2022/08/09 00:41:10;;;;;;;3.78;2.10;;;12.60;99.90;;;;;;4978018;28;20050;-92
2022/08/09 00:43:38;;;;;;;4.30;2.72;;;12.60;99.90;;;;;;4963722;28;20512;-93
2022/08/09 00:46:08;;;;;;;3.20;2.90;;;12.50;99.90;;;;;;4961338;28;20053;-92
2022/08/09 00:48:35;;;;;;;6.22;3.42;;;12.50;99.90;;;;;;4963556;28;20065;-92
2022/08/09 00:51:03;;;;;;;5.00;3.10;;;12.50;99.90;;;;;;4976010;28;20047;-93
2022/08/09 00:53:32;;;;;;;4.63;3.72;;;12.50;99.90;;;;;;4949719;28;20077;-92
2022/08/09 00:55:58;;;;;;;6.10;3.67;;;12.50;99.90;;;;;;4975030;28;20046;-93
2022/08/09 00:58:24;;;;;;;3.45;3.13;;;12.40;99.90;;;;;;4959912;28;20498;-92
2022/08/09 01:01:00;;;;;;;4.05;3.65;;;12.50;99.90;;;;;;4943449;28;20109;-92
2022/08/09 01:03:51;;;;;;;6.78;4.03;;;12.30;99.90;;;;;;4966070;28;20042;-91
2022/08/09 01:06:39;;;;;;;;;;;;;;;;;;;;;
2022/08/09 01:13:03;;;;;;;3.35;2.80;;;12.40;99.90;;;;;;4966450;28;20487;-92
2022/08/09 01:16:30;;;;;;;6.10;2.35;;;12.30;99.90;;;;;;4958989;28;20058;-92
2022/08/09 01:19:16;;;;;;;8.75;2.80;;;12.30;99.90;;;;;;4966286;28;20411;-92
2022/08/09 01:26:12;;;;;;;6.47;2.95;;;12.60;99.90;;;;;;4976885;28;20050;-91
2022/08/09 01:29:02;;;;;;;2.58;2.00;;;12.40;99.90;;;;;;4953834;28;20055;-92
2022/08/09 01:35:48;;;;;;;2.22;1.70;;;11.70;99.90;;;;;;4878975;29;19948;-92
2022/08/09 01:39:34;;;;;;;;;;;;;;;;;;;;;
2022/08/09 01:43:14;;;;;;;;;;;;;;;;;;;;;
2022/08/09 01:46:05;;;;;;;;;;;;;;;;;;;;;
2022/08/09 01:57:36;;;;;;;7.78;3.60;;;11.30;99.90;;;;;;4747843;30;20060;-92
2022/08/09 02:01:12;;;;;;;;;;;;;;;;;;;;;
2022/08/09 02:33:46;;;;;;;;;;;;;;;;;;;;;
2022/08/09 04:53:41;;;;;;;2.20;1.48;;;10.80;99.90;;;;;;6204306;22;20337;-89
2022/08/09 05:18:16;;;;;;;2.88;2.60;;;11.40;99.90;;;;;;6086298;23;20097;-91
2022/08/09 05:21:26;;;;;;;3.03;2.42;;;11.40;99.90;;;;;;6160029;23;20397;-91
2022/08/09 05:23:59;;;;;;;3.13;2.78;;;11.60;99.90;;;;;;6194764;23;20016;-91
2022/08/09 05:26:40;;;;;;;2.72;2.25;;;11.70;99.90;;;;;;6191382;23;20024;-92
2022/08/09 05:29:07;;;;;;;2.60;2.40;;;11.70;99.90;;;;;;6190991;23;20016;-91
2022/08/09 05:31:32;;;;;;;2.35;2.10;;;11.80;99.90;;;;;;6216286;23;20025;-92
2022/08/09 05:33:58;;;;;;;1.92;1.70;;;12.00;99.90;;;;;;6216906;23;20016;-91
2022/08/09 05:36:24;;;;;;;2.28;2.08;;;12.10;99.90;;;;;;6216818;23;20027;-93
2022/08/09 05:38:50;;;;;;;2.05;1.85;;;12.10;99.90;;;;;;6191575;23;20013;-93
2022/08/09 05:41:16;;;;;;;2.22;1.85;;;12.30;99.90;;;;;;6215993;23;20020;-93
2022/08/09 06:18:23;;;;;;;1.67;1.55;;;14.30;99.90;;;;;;6217735;23;20052;-91
2022/08/09 06:21:17;;;;;;;3.58;1.90;;;14.40;99.90;;;;;;6193086;23;20024;-90
2022/08/09 06:23:43;;;;;;;3.47;2.00;;;14.60;99.90;;;;;;6209617;23;20024;-90
2022/08/09 06:26:16;;;;;;;4.85;2.17;;;14.70;99.90;;;;;;6191001;23;20016;-91
2022/08/09 06:29:14;;;;;;;4.15;2.30;;;14.80;99.90;;;;;;6191766;23;20349;-91
2022/08/09 06:31:40;;;;;;;2.58;2.05;;;15.00;99.90;;;;;;6199748;23;20109;-91
2022/08/09 06:34:21;;;;;;;4.78;1.85;;;15.10;99.90;;;;;;6190918;23;20013;-89
2022/08/09 06:48:03;;;;;;;9.30;3.03;;;16.10;99.90;;;;;;6035321;23;20103;-89
2022/08/09 06:50:30;;;;;;;6.95;3.00;;;16.30;99.90;;;;;;6216466;23;20460;-89
2022/08/09 06:52:57;;;;;;;5.32;2.50;;;16.50;99.90;;;;;;6215270;23;20020;-88
2022/08/09 06:55:28;;;;;;;4.82;3.22;;;16.60;99.90;;;;;;6215088;23;20012;-88
2022/08/09 06:57:55;;;;;;;5.35;2.92;;;16.80;99.90;;;;;;6214110;23;20071;-89
2022/08/09 07:03:35;;;;;;;5.90;3.35;;;17.10;99.90;;;;;;6214434;23;20020;-87
2022/08/09 07:06:04;;;;;;;7.25;2.88;;;17.30;99.90;;;;;;6213302;23;20078;-89
2022/08/09 07:08:33;;;;;;;6.10;2.95;;;17.40;99.90;;;;;;6215231;23;20055;-88
2022/08/09 07:11:01;;;;;;;3.72;2.97;;;17.50;99.90;;;;;;6192985;23;20025;-86
2022/08/09 07:13:33;;;;;;;3.53;3.00;;;17.60;99.90;;;;;;6192586;23;20052;-91
2022/08/09 07:15:59;;;;;;;5.55;3.63;;;17.70;99.90;;;;;;6219174;23;20020;-87
2022/08/09 07:18:25;;;;;;;4.28;3.28;;;17.80;99.90;;;;;;6215045;23;20055;-89
2022/08/09 07:20:54;;;;;;;5.70;3.05;;;17.90;99.90;;;;;;6214453;23;20384;-88
2022/08/09 07:23:49;;;;;;;3.40;2.65;;;18.50;99.90;;;;;;6214333;23;20021;-88
2022/08/09 07:26:23;;;;;;;3.50;2.83;;;18.10;99.90;;;;;;6213712;23;20024;-89
2022/08/09 07:28:48;;;;;;;4.60;2.70;;;18.20;99.90;;;;;;6215922;23;20017;-85
2022/08/09 07:31:14;;;;;;;4.70;3.05;;;18.30;99.90;;;;;;6215535;23;20147;-86
2022/08/09 07:33:44;;;;;;;4.13;2.33;;;18.30;99.90;;;;;;6188501;23;20020;-87
2022/08/09 07:36:34;;;;;;;6.80;2.78;;;18.40;99.90;;;;;;6215035;23;20083;-89
2022/08/09 07:39:44;;;;;;;7.18;3.22;;;18.70;99.90;;;;;;6213916;23;20013;-91
2022/08/09 07:42:18;;;;;;;5.32;2.63;;;18.50;99.90;;;;;;6211683;23;20348;-89
2022/08/09 07:44:44;;;;;;;4.28;1.92;;;18.80;99.90;;;;;;6213904;23;20020;-88
2022/08/09 07:47:35;;;;;;;3.65;1.80;;;18.70;99.90;;;;;;6215429;23;20027;-91
2022/08/09 07:50:01;;;;;;;4.35;2.10;;;18.90;99.90;;;;;;6189135;23;20051;-87
2022/08/09 07:52:46;;;;;;;;;;;;;;;;;;;;;
2022/08/09 07:55:18;;;;;;;4.47;1.42;;;18.80;99.90;;;;;;6216554;23;20457;-86
2022/08/09 07:58:00;;;;;;;2.70;1.73;;;18.90;99.90;;;;;;6217670;23;20021;-93
2022/08/09 08:00:28;;;;;;;3.67;1.90;;;18.90;99.90;;;;;;6215151;23;20457;-86
2022/08/09 08:03:31;;;;;;;3.47;1.55;;;18.90;99.90;;;;;;6216568;23;20341;-89
2022/08/09 08:05:57;;;;;;;3.40;0.95;;;18.90;99.90;;;;;;6215979;23;20027;-89
2022/08/09 08:11:44;;;;;;;2.55;1.13;;;19.20;99.90;;;;;;6177910;22;20028;-92
2022/08/09 08:21:22;;;;;;;4.82;1.15;;;19.40;99.90;;;;;;6243472;22;20051;-89
2022/08/09 08:23:57;;;;;;;6.50;1.10;;;19.40;99.90;;;;;;6219486;23;20020;-88
2022/08/09 08:30:24;;;;;;;1.38;0.70;;;19.80;99.90;;;;;;6196180;22;20079;-90
2022/08/09 08:32:59;;;;;;;5.05;0.73;;;19.60;99.90;;;;;;6190818;23;20048;-89
2022/08/09 08:35:35;;;;;;;1.08;0.60;;;19.80;99.90;;;;;;6165876;23;20067;-86
2022/08/09 08:38:01;;;;;;;3.85;0.75;;;19.90;99.90;;;;;;6165305;23;20379;-88
2022/08/09 08:40:27;;;;;;;2.92;0.80;;;19.90;99.90;;;;;;6190725;23;20421;-87
2022/08/09 08:42:55;;;;;;;0.95;0.45;;;20.00;99.90;;;;;;6166069;23;20016;-88
2022/08/09 08:45:52;;;;;;;0.63;0.40;;;19.10;99.90;;;;;;6216307;23;20082;-86
2022/08/09 08:48:18;;;;;;;1.88;0.80;;;20.20;99.90;;;;;;6179097;23;20029;-86
2022/08/09 08:51:05;;;;;;;1.88;0.57;;;20.10;99.90;;;;;;6189761;23;20309;-89
2022/08/09 08:53:46;;;;;;;0.93;0.40;;;20.30;99.90;;;;;;6216837;23;20016;-90
2022/08/09 08:56:18;;;;;;;1.10;0.70;;;20.40;99.90;;;;;;6191234;23;20020;-88
2022/08/09 08:59:16;;;;;;;1.48;0.63;;;20.70;99.90;;;;;;6189337;23;20437;-88
2022/08/09 09:01:47;;;;;;;0.68;0.40;;;21.30;99.90;;;;;;6183052;23;20016;-88
2022/08/09 09:04:15;;;;;;;1.98;0.90;;;20.90;99.90;;;;;;6217580;23;20027;-87
2022/08/09 09:10:08;;;;;;;1.75;0.50;;;20.90;99.90;;;;;;6190244;23;20020;-87
2022/08/09 09:12:35;;;;;;;1.50;0.43;;;21.30;99.90;;;;;;6216099;23;20087;-90
2022/08/09 09:15:05;;;;;;;1.30;0.55;;;20.80;99.90;;;;;;6215499;23;20032;-88
2022/08/09 09:17:37;;;;;;;2.38;0.50;;;20.90;99.90;;;;;;6215286;23;20025;-89
2022/08/09 09:20:08;;;;;;;1.13;0.60;;;21.10;99.90;;;;;;6189534;23;20020;-85
2022/08/09 09:22:57;;;;;;;1.48;0.70;;;21.10;99.90;;;;;;6217102;23;20020;-84
2022/08/09 09:25:40;;;;;;;1.55;0.68;;;21.00;99.90;;;;;;6216094;23;20020;-87
2022/08/09 09:28:07;;;;;;;2.15;0.93;;;21.00;99.90;;;;;;6216957;23;20017;-84
2022/08/09 09:30:34;;;;;;;1.98;0.50;;;20.90;99.90;;;;;;6216520;23;20047;-89
2022/08/09 09:33:14;;;;;;;1.17;0.50;;;20.90;99.90;;;;;;6189462;23;20433;-93
2022/08/09 09:35:52;;;;;;;0.35;0.35;;;20.70;99.90;;;;;;6216178;23;20015;-88
2022/08/09 09:38:21;;;;;;;1.63;0.82;;;20.80;99.90;;;;;;6191967;23;20025;-85
2022/08/09 09:40:47;;;;;;;1.50;0.38;;;20.80;99.90;;;;;;6215943;23;20013;-87
2022/08/09 09:43:19;;;;;;;1.70;0.40;;;20.90;99.90;;;;;;6216791;23;20079;-85
2022/08/09 09:45:52;;;;;;;1.65;0.60;;;20.90;99.90;;;;;;6189590;23;20031;-86
2022/08/09 09:48:20;;;;;;;1.73;0.93;;;20.90;99.90;;;;;;6214989;23;20040;-88
2022/08/09 09:50:53;;;;;;;0.80;0.43;;;20.90;99.90;;;;;;6189574;23;20337;-89
2022/08/09 09:53:23;;;;;;;1.60;0.60;;;20.80;99.90;;;;;;6216295;23;20468;-92
2022/08/09 09:55:54;;;;;;;4.45;0.77;;;20.90;99.90;;;;;;6189639;23;20021;-92
2022/08/09 09:58:21;;;;;;;2.92;0.73;;;20.70;99.90;;;;;;6165640;23;20009;-87
2022/08/09 10:01:12;;;;;;;1.00;0.60;;;20.60;99.90;;;;;;6189199;23;20024;-87
2022/08/09 10:03:45;;;;;;;1.10;0.70;;;20.60;99.90;;;;;;6189611;23;20412;-90
2022/08/09 10:06:11;;;;;;;5.82;0.80;;;20.70;99.90;;;;;;6114936;23;20032;-87
2022/08/09 10:08:37;;;;;;;1.65;0.50;;;20.90;99.90;;;;;;6215030;23;20022;-85
2022/08/09 10:11:38;;;;;;;4.63;0.85;;;21.00;99.90;;;;;;6189856;23;20074;-87
2022/08/09 10:14:04;;;;;;;1.77;0.77;;;20.10;99.90;;;;;;6088737;23;20017;-87
2022/08/09 10:16:35;;;;;;;2.08;0.57;;;21.10;99.90;;;;;;6188887;23;20503;-87
2022/08/09 10:19:10;;;;;;;1.30;0.77;;;21.00;99.90;;;;;;6215817;23;20453;-86
2022/08/09 10:21:48;;;;;;;1.77;0.70;;;21.00;99.90;;;;;;6165462;23;20055;-90
2022/08/09 10:24:17;;;;;;;3.85;0.82;;;21.00;99.90;;;;;;6189389;23;20020;-87
2022/08/09 10:26:45;;;;;;;2.50;1.00;;;21.10;99.90;;;;;;6189657;23;20034;-86
2022/08/09 10:29:12;;;;;;;2.30;0.73;;;21.00;99.90;;;;;;6189482;23;20017;-87
2022/08/09 10:31:42;;;;;;;2.00;0.77;;;21.00;99.90;;;;;;6185899;23;20100;-88
2022/08/09 10:34:11;;;;;;;1.48;0.68;;;21.00;99.90;;;;;;6215053;23;20507;-89
2022/08/09 10:36:38;;;;;;;2.58;0.63;;;20.90;99.90;;;;;;6215692;23;20426;-86
2022/08/09 10:39:05;;;;;;;2.72;0.80;;;20.90;99.90;;;;;;6189599;23;20100;-87
2022/08/09 10:41:31;;;;;;;1.48;0.50;;;21.00;99.90;;;;;;6214827;23;20027;-86
2022/08/09 10:43:59;;;;;;;2.30;0.77;;;21.10;99.90;;;;;;6215707;23;20091;-87
2022/08/09 10:46:42;;;;;;;2.33;0.60;;;21.20;99.90;;;;;;6214628;23;20021;-89
2022/08/09 10:49:32;;;;;;;1.58;0.52;;;21.30;99.90;;;;;;6216869;23;20048;-91
2022/08/09 10:52:19;;;;;;;1.60;0.70;;;21.40;99.90;;;;;;6189357;23;20448;-91
2022/08/09 10:54:46;;;;;;;2.55;0.85;;;21.20;99.90;;;;;;6216655;23;20023;-88
2022/08/09 10:57:12;;;;;;;3.42;0.80;;;21.20;99.90;;;;;;6215277;23;20059;-88
2022/08/09 10:59:41;;;;;;;1.00;0.45;;;21.20;99.90;;;;;;6189843;23;20063;-87
2022/08/09 11:02:34;;;;;;;0.63;0.52;;;21.40;99.90;;;;;;6189080;23;20017;-89
2022/08/09 11:05:36;;;;;;;1.00;0.40;;;21.40;99.90;;;;;;6213809;23;20016;-90
2022/08/09 11:08:54;;;;;;;1.42;0.43;;;21.30;99.90;;;;;;6174468;23;20095;-88
2022/08/09 11:11:22;;;;;;;3.25;0.50;;;21.30;99.90;;;;;;6195587;23;20028;-89
2022/08/09 11:14:26;;;;;;;4.13;0.70;;;21.30;99.90;;;;;;6213926;23;20445;-87
2022/08/09 11:16:55;;;;;;;4.45;0.57;;;21.40;99.90;;;;;;6187781;23;20067;-87
2022/08/09 11:20:21;;;;;;;1.65;0.50;;;21.50;99.90;;;;;;6213239;23;20017;-89
2022/08/09 11:22:47;;;;;;;0.73;0.40;;;21.00;99.90;;;;;;6215002;23;20019;-91
2022/08/09 11:25:39;;;;;;;1.30;0.40;;;21.50;99.90;;;;;;6213915;23;20403;-88
2022/08/09 11:28:27;;;;;;;2.22;0.45;;;21.60;99.90;;;;;;6177493;23;20018;-94
2022/08/09 11:30:53;;;;;;;0.50;0.25;;;21.80;99.90;;;;;;6217363;23;20029;-88
2022/08/09 11:33:19;;;;;;;1.60;0.45;;;21.80;99.90;;;;;;6189853;23;20387;-86
2022/08/09 11:35:53;;;;;;;2.58;0.50;;;21.90;99.90;;;;;;6217813;23;20013;-88
2022/08/09 11:38:20;;;;;;;0.77;0.40;;;21.90;99.90;;;;;;6191059;23;20023;-87
2022/08/09 11:40:46;;;;;;;0.90;0.38;;;22.00;99.90;;;;;;6190301;23;20013;-87
2022/08/09 11:43:36;;;;;;;0.68;0.40;;;22.10;99.90;;;;;;6218066;23;20055;-86
2022/08/09 11:46:06;;;;;;;0.65;0.40;;;22.10;99.90;;;;;;6165364;23;20043;-87
2022/08/09 11:48:48;;;;;;;0.65;0.30;;;22.10;99.90;;;;;;6167108;23;20020;-87
2022/08/09 11:51:14;;;;;;;0.50;0.45;;;22.20;99.90;;;;;;6191751;23;20094;-84
2022/08/09 11:53:41;;;;;;;0.98;0.45;;;22.10;99.90;;;;;;6216907;23;20341;-86
2022/08/09 11:56:13;;;;;;;1.90;0.60;;;22.00;99.90;;;;;;6166197;23;20036;-89
2022/08/09 11:59:01;;;;;;;2.55;0.60;;;21.80;99.90;;;;;;6217827;23;20052;-92
2022/08/09 12:01:42;;;;;;;4.28;0.63;;;21.80;99.90;;;;;;6217259;23;20013;-88
2022/08/09 12:05:09;;;;;;;1.60;0.40;;;20.70;99.90;;;;;;6191854;23;20020;-92
2022/08/09 12:07:35;;;;;;;1.33;0.60;;;21.30;99.90;;;;;;6163240;23;20465;-84
2022/08/09 12:10:01;;;;;;;2.03;0.68;;;21.90;99.90;;;;;;6190696;23;20051;-85
2022/08/09 12:12:27;;;;;;;0.50;0.43;;;22.00;99.90;;;;;;6191088;23;20024;-86
2022/08/09 12:15:02;;;;;;;2.45;0.60;;;22.20;99.90;;;;;;6216500;23;20024;-89
2022/08/09 12:17:30;;;;;;;0.57;0.40;;;22.30;99.90;;;;;;6166304;23;20373;-90
2022/08/09 12:20:15;;;;;;;1.73;0.50;;;22.30;99.90;;;;;;6165888;23;20020;-91
2022/08/09 12:22:44;;;;;;;;;;;22.50;99.90;;;;;;6165859;23;20344;-90
2022/08/09 12:25:15;;;;;;;0.63;0.38;;;22.40;99.90;;;;;;6190921;23;19947;-87
2022/08/09 12:27:44;;;;;;;0.32;0.30;;;22.40;99.90;;;;;;6218795;23;20510;-89
2022/08/09 12:30:13;;;;;;;2.60;0.40;;;22.40;99.90;;;;;;6195355;23;20016;-88
2022/08/09 12:33:20;;;;;;;;;;;;;;;;;;;;;
2022/08/09 12:36:18;;;;;;;0.98;0.28;;;22.70;99.90;;;;;;6217247;23;20338;-90
2022/08/09 12:38:44;;;;;;;3.10;0.50;;;22.50;99.90;;;;;;6195288;23;20035;-89
2022/08/09 12:41:30;;;;;;;3.22;0.40;;;22.60;99.90;;;;;;6218026;23;20017;-88
2022/08/09 12:43:57;;;;;;;1.08;0.32;;;22.50;99.90;;;;;;6215200;23;20016;-84
2022/08/09 12:46:27;;;;;;;2.38;0.50;;;22.50;99.90;;;;;;6215731;23;20463;-89
2022/08/09 12:49:28;;;;;;;1.88;0.50;;;22.50;99.90;;;;;;6217409;23;20040;-90
2022/08/09 12:52:35;;;;;;;0.40;0.30;;;22.70;99.90;;;;;;6196610;23;20027;-92
2022/08/09 12:55:29;;;;;;;0.75;0.47;;;22.70;99.90;;;;;;6163262;23;20079;-87
2022/08/09 12:58:09;;;;;;;0.38;0.30;;;22.40;99.90;;;;;;6190009;23;20017;-89
2022/08/09 13:01:23;;;;;;;2.03;0.40;;;22.50;99.90;;;;;;6216898;23;20021;-90
2022/08/09 13:04:07;;;;;;;1.38;0.50;;;22.80;99.90;;;;;;6048284;23;20018;-90
2022/08/09 13:06:38;;;;;;;1.08;0.40;;;22.80;99.90;;;;;;6071373;23;20078;-86
2022/08/09 13:09:45;;;;;;;0.63;0.28;;;22.80;99.90;;;;;;6210374;23;20345;-90
2022/08/09 13:12:16;;;;;;;0.25;0.20;;;22.80;99.90;;;;;;6216246;23;20020;-87
2022/08/09 13:14:51;;;;;;;1.15;0.40;;;22.80;99.90;;;;;;6215187;23;20433;-86
2022/08/09 13:17:18;;;;;;;2.95;0.52;;;22.90;99.90;;;;;;6215118;23;20020;-88
2022/08/09 13:19:46;;;;;;;2.63;0.40;;;22.90;99.90;;;;;;6188926;23;20027;-89
2022/08/09 13:22:17;;;;;;;0.95;0.60;;;22.90;99.90;;;;;;6191019;23;20023;-93
2022/08/09 13:24:59;;;;;;;0.73;0.40;;;22.80;99.90;;;;;;6216261;23;20032;-88
2022/08/09 13:27:25;;;;;;;1.30;0.52;;;23.00;99.90;;;;;;6215664;23;20020;-87
2022/08/09 13:30:07;;;;;;;1.75;0.70;;;23.00;99.90;;;;;;6189654;23;20480;-87
2022/08/09 13:32:55;;;;;;;1.35;0.50;;;23.00;99.90;;;;;;6188576;23;20025;-89
2022/08/09 13:35:24;;;;;;;2.58;0.70;;;23.30;99.90;;;;;;6189933;23;20417;-87
2022/08/09 13:37:54;;;;;;;1.13;0.47;;;23.10;99.90;;;;;;6190693;23;20077;-86
2022/08/09 13:40:23;;;;;;;1.40;1.00;;;23.00;99.90;;;;;;6213785;23;20035;-93
2022/08/09 13:42:49;;;;;;;0.95;0.82;;;23.10;99.90;;;;;;6165725;23;20013;-88
2022/08/09 13:45:18;;;;;;;1.67;0.50;;;23.10;99.90;;;;;;6216465;23;20017;-91
2022/08/09 13:47:47;;;;;;;0.50;0.40;;;23.00;99.90;;;;;;6164820;23;20110;-90
2022/08/09 13:50:15;;;;;;;0.75;0.40;;;23.00;99.90;;;;;;6189865;23;20016;-89
2022/08/09 13:53:18;;;;;;;6.32;1.55;;;23.00;99.90;;;;;;6215657;23;20055;-93
2022/08/09 13:55:44;;;;;;;1.45;0.50;;;22.20;99.90;;;;;;6215430;23;20017;-90
2022/08/09 13:58:10;;;;;;;0.77;0.50;;;23.00;99.90;;;;;;6190925;23;20079;-89
2022/08/09 14:00:37;;;;;;;3.22;0.40;;;23.10;99.90;;;;;;6189269;23;20333;-87
2022/08/09 14:03:04;;;;;;;0.30;0.25;;;23.20;99.90;;;;;;6165273;23;20552;-87
2022/08/09 14:05:30;;;;;;;1.85;0.40;;;23.20;99.90;;;;;;6216543;23;20091;-88
2022/08/09 14:07:56;;;;;;;0.38;0.20;;;23.20;99.90;;;;;;6188934;23;20098;-85
2022/08/09 14:10:22;;;;;;;1.15;0.30;;;23.30;99.90;;;;;;6213843;23;20434;-85
2022/08/09 14:12:48;;;;;;;4.03;0.30;;;23.30;99.90;;;;;;6189683;23;20357;-88
2022/08/09 14:15:14;;;;;;;0.85;0.40;;;23.40;99.90;;;;;;6188724;23;20023;-87
2022/08/09 14:17:40;;;;;;;1.30;0.70;;;23.40;99.90;;;;;;6189526;23;20345;-88
2022/08/09 14:20:06;;;;;;;0.50;0.40;;;23.30;99.80;;;;;;6216610;23;20016;-86
2022/08/09 14:22:32;;;;;;;0.63;0.40;;;23.40;99.50;;;;;;6188925;23;20050;-89
2022/08/09 14:24:58;;;;;;;1.33;0.40;;;23.40;99.80;;;;;;6189929;23;20088;-88
2022/08/09 14:27:31;;;;;;;0.80;0.38;;;23.40;99.80;;;;;;6216210;23;20028;-89
2022/08/09 14:29:57;;;;;;;2.75;0.30;;;23.50;99.30;;;;;;6189092;23;20021;-89
2022/08/09 14:32:24;;;;;;;1.35;0.35;;;23.50;99.50;;;;;;6214865;23;20043;-89
2022/08/09 14:34:50;;;;;;;0.65;0.43;;;23.60;99.90;;;;;;6214984;23;20017;-93
2022/08/09 14:37:19;;;;;;;1.45;0.50;;;23.60;99.70;;;;;;6213881;23;20023;-85
2022/08/09 14:39:48;;;;;;;0.82;0.40;;;23.60;99.50;;;;;;6215444;23;20016;-91
2022/08/09 14:42:44;;;;;;;2.00;0.50;;;23.60;99.40;;;;;;6188544;23;20431;-89
2022/08/09 14:45:10;;;;;;;1.85;0.40;;;23.70;99.10;;;;;;6168055;23;20027;-87
2022/08/09 14:47:36;;;;;;;1.75;0.50;;;23.70;99.00;;;;;;6216225;23;20021;-87
2022/08/09 14:50:04;;;;;;;1.50;0.40;;;23.70;98.40;;;;;;6214839;23;20020;-86
2022/08/09 14:52:30;;;;;;;1.02;0.57;;;23.60;99.10;;;;;;6214481;23;20024;-86
2022/08/09 14:54:56;;;;;;;1.48;0.70;;;23.60;98.40;;;;;;6216222;23;20054;-92
2022/08/09 14:57:22;;;;;;;1.98;0.50;;;23.60;99.10;;;;;;6215305;23;20023;-88
2022/08/09 14:59:47;;;;;;;0.35;0.30;;;23.60;98.80;;;;;;6189606;23;20016;-87
2022/08/09 15:02:16;;;;;;;2.80;0.40;;;23.60;98.90;;;;;;6215872;23;20027;-92
2022/08/09 15:04:43;;;;;;;0.40;0.20;;;23.80;99.10;;;;;;6188401;23;20054;-88
2022/08/09 15:07:27;;;;;;;1.77;0.43;;;23.80;98.50;;;;;;6215885;23;20021;-87
2022/08/09 15:09:52;;;;;;;0.68;0.30;;;23.80;98.90;;;;;;6188824;23;20075;-86
2022/08/09 15:12:18;;;;;;;0.65;0.30;;;23.90;98.90;;;;;;6215488;23;20009;-86
2022/08/09 15:14:44;;;;;;;0.20;0.20;;;23.90;98.70;;;;;;6214111;23;20027;-88
2022/08/09 15:17:10;;;;;;;2.35;0.30;;;23.90;98.60;;;;;;6188023;23;20028;-87
2022/08/09 15:19:37;;;;;;;2.28;0.63;;;23.90;97.70;;;;;;6214878;23;20035;-91
2022/08/09 15:22:03;;;;;;;0.93;0.30;;;23.80;97.80;;;;;;6213777;23;20075;-90
2022/08/09 15:24:29;;;;;;;8.38;0.85;;;23.60;97.80;;;;;;6188721;23;20013;-88
2022/08/09 15:26:54;;;;;;;0.77;0.50;;;23.50;98.10;;;;;;6216501;23;20372;-87
2022/08/09 15:29:20;;;;;;;0.22;0.20;;;23.50;98.40;;;;;;6220058;23;20023;-85
2022/08/09 15:31:46;;;;;;;0.77;0.30;;;23.50;98.40;;;;;;6215076;23;20394;-91
2022/08/09 15:34:12;;;;;;;0.65;0.30;;;23.40;98.40;;;;;;6188486;23;20020;-87
2022/08/09 15:36:38;;;;;;;1.20;0.40;;;23.40;98.70;;;;;;6215119;23;20021;-88
2022/08/09 15:39:04;;;;;;;3.17;0.25;;;23.40;98.10;;;;;;6215201;23;20016;-88
2022/08/09 15:41:32;;;;;;;1.75;0.38;;;23.30;98.40;;;;;;6216170;23;20056;-88
2022/08/09 15:44:02;;;;;;;4.43;0.70;;;23.30;98.40;;;;;;6189165;23;20020;-87
2022/08/09 15:46:29;;;;;;;0.73;0.32;;;23.30;97.70;;;;;;6189060;23;20708;-89
2022/08/09 15:49:15;;;;;;;0.60;0.30;;;23.20;98.10;;;;;;6215909;23;20016;-88
2022/08/09 15:51:47;;;;;;;0.30;0.30;;;23.10;98.60;;;;;;6215523;23;20492;-94
2022/08/09 15:54:12;;;;;;;0.20;0.20;;;23.20;98.30;;;;;;6215718;23;20369;-91
2022/08/09 15:56:38;;;;;;;0.50;0.30;;;23.00;98.30;;;;;;6163995;23;20100;-87
2022/08/09 15:59:04;;;;;;;0.40;0.25;;;23.00;98.40;;;;;;6189688;23;20024;-87
2022/08/09 16:01:30;;;;;;;0.75;0.20;;;23.00;98.30;;;;;;6188217;23;20020;-88
2022/08/09 16:03:56;;;;;;;0.45;0.30;;;23.00;97.90;;;;;;6188989;23;20016;-92
2022/08/09 16:06:21;;;;;;;0.43;0.10;;;22.90;98.40;;;;;;6187836;23;20024;-88
2022/08/09 16:08:47;;;;;;;3.05;0.30;;;22.90;98.10;;;;;;6189660;23;20035;-87
2022/08/09 16:11:16;;;;;;;3.25;0.40;;;22.90;98.20;;;;;;6215796;23;20086;-87
2022/08/09 16:13:51;;;;;;;1.48;0.10;;;22.90;98.30;;;;;;6189291;23;20390;-92
2022/08/09 16:16:17;;;;;;;2.00;0.45;;;23.00;98.50;;;;;;6190740;23;20099;-92
2022/08/09 16:18:45;;;;;;;1.05;0.20;;;23.00;98.00;;;;;;6217230;23;20051;-89
2022/08/09 16:21:14;;;;;;;2.05;0.30;;;23.00;97.90;;;;;;6191080;23;20318;-85
2022/08/09 16:23:40;;;;;;;0.93;0.30;;;23.10;97.10;;;;;;6190608;23;20017;-85
2022/08/09 16:26:06;;;;;;;1.05;0.28;;;23.20;96.60;;;;;;6216835;23;20023;-90
2022/08/09 16:28:32;;;;;;;0.98;0.45;;;23.30;96.50;;;;;;6164953;23;20013;-88
2022/08/09 16:31:15;;;;;;;2.15;0.30;;;23.30;96.20;;;;;;6217315;23;20087;-90
2022/08/09 16:33:58;;;;;;;1.45;0.30;;;23.40;95.70;;;;;;6190975;23;20345;-88
2022/08/09 16:36:26;;;;;;;2.40;0.30;;;23.10;95.00;;;;;;6189210;23;20031;-87
2022/08/09 16:38:52;;;;;;;1.38;0.25;;;23.40;94.70;;;;;;6217438;23;20472;-90
2022/08/09 16:41:18;;;;;;;0.90;0.38;;;23.30;94.30;;;;;;6190209;23;20021;-88
2022/08/09 16:43:45;;;;;;;0.68;0.32;;;23.10;94.80;;;;;;6189847;23;20365;-90
2022/08/09 16:46:21;;;;;;;1.65;0.30;;;22.80;95.60;;;;;;6165149;23;20480;-89
2022/08/09 16:48:47;;;;;;;0.22;0.20;;;22.60;96.10;;;;;;6216603;23;20035;-88
2022/08/09 16:51:14;;;;;;;0.75;0.20;;;22.50;96.30;;;;;;6189608;23;20024;-88
2022/08/09 16:54:09;;;;;;;1.00;0.38;;;22.30;96.70;;;;;;6190597;23;20013;-91
2022/08/09 16:56:35;;;;;;;0.68;0.20;;;22.10;97.00;;;;;;6189901;23;20017;-91
2022/08/09 16:59:02;;;;;;;0.45;0.30;;;22.00;97.10;;;;;;6167236;23;20524;-90
2022/08/09 17:01:29;;;;;;;0.75;0.20;;;21.80;97.70;;;;;;6190688;23;20016;-91
2022/08/09 17:03:55;;;;;;;1.65;0.20;;;21.80;98.00;;;;;;6190503;23;20013;-89
2022/08/09 17:06:22;;;;;;;2.38;0.20;;;21.80;97.70;;;;;;6190807;23;20048;-90
2022/08/09 17:08:49;;;;;;;0.43;0.20;;;21.70;97.60;;;;;;6190875;23;20092;-86
2022/08/09 17:11:15;;;;;;;1.90;0.60;;;21.60;97.60;;;;;;6189113;23;20052;-89
2022/08/09 17:13:41;;;;;;;1.27;0.30;;;21.50;98.00;;;;;;6189868;23;20323;-91
2022/08/09 17:16:09;;;;;;;0.28;0.28;;;21.40;98.20;;;;;;6166134;23;20021;-89
2022/08/09 17:18:35;;;;;;;0.47;0.38;;;21.40;97.90;;;;;;6190380;23;20067;-90
2022/08/09 17:21:04;;;;;;;2.33;0.25;;;21.30;98.20;;;;;;6190751;23;20286;-84
2022/08/09 17:23:30;;;;;;;1.48;0.20;;;21.20;98.40;;;;;;6216299;23;20123;-86
2022/08/09 17:25:56;;;;;;;2.33;0.30;;;21.20;98.60;;;;;;6189180;23;20522;-86
2022/08/09 17:28:21;;;;;;;0.93;0.30;;;21.10;99.00;;;;;;6191013;23;20095;-88
2022/08/09 17:30:47;;;;;;;3.08;0.30;;;21.10;99.20;;;;;;6174959;23;20035;-87
2022/08/09 17:33:13;;;;;;;0.70;0.15;;;21.00;99.20;;;;;;6215431;23;20024;-86
2022/08/09 17:35:39;;;;;;;0.65;0.35;;;21.00;99.00;;;;;;6190367;23;20021;-87
2022/08/09 17:38:05;;;;;;;0.65;0.20;;;20.90;99.10;;;;;;6216092;23;20031;-87
2022/08/09 17:40:32;;;;;;;0.93;0.40;;;21.00;99.20;;;;;;6190054;23;20099;-86
2022/08/09 17:43:00;;;;;;;0.52;0.50;;;20.90;99.00;;;;;;6216296;23;20475;-92
2022/08/09 17:45:28;;;;;;;0.45;0.20;;;20.90;98.80;;;;;;6215298;23;20021;-93
2022/08/09 17:47:55;;;;;;;0.65;0.20;;;20.90;98.50;;;;;;6191039;23;20021;-87
2022/08/09 17:50:23;;;;;;;0.90;0.20;;;20.90;98.40;;;;;;6190865;23;20023;-88
2022/08/09 17:52:54;;;;;;;0.47;0.13;;;20.80;98.70;;;;;;6189395;23;20519;-89
2022/08/09 17:55:20;;;;;;;0.95;0.50;;;20.90;98.60;;;;;;6190587;23;20475;-90
2022/08/09 17:57:49;;;;;;;0.10;0.10;;;20.90;99.00;;;;;;6215770;23;20020;-87
2022/08/09 18:00:18;;;;;;;0.20;0.20;;;20.90;98.50;;;;;;6190596;23;20023;-89
2022/08/09 18:03:06;;;;;;;0.93;0.20;;;21.00;98.50;;;;;;6216861;23;20024;-92
2022/08/09 18:05:32;;;;;;;0.52;0.20;;;21.00;98.40;;;;;;6189870;23;20095;-88
2022/08/09 18:08:03;;;;;;;0.13;0.10;;;21.20;98.10;;;;;;6214359;23;20052;-90